Time;durP1;ratioP1;P1;durP2;ratioP2;P2;SDS_P1;SDS_P2;PMS_P1;PMS_P2;Temp;Humidity;BMP_temperature;BMP_pressure;BME280_temperature;BME280_humidity;BME280_pressure;Samples;Min_cycle;Max_cycle;Signal;HPM_P1;HPM_P2
2021/04/14 00:01:22;;;;;;;4.25;1.30;;;20.70;38.50;;;;;;5186133;28;20037;-76
2021/04/14 00:03:53;;;;;;;3.45;1.00;;;20.60;38.90;;;;;;5189127;28;20053;-77
2021/04/14 00:06:23;;;;;;;3.05;1.15;;;20.60;38.70;;;;;;5201547;28;20021;-77
2021/04/14 00:08:54;;;;;;;4.05;1.00;;;20.60;39.20;;;;;;5186655;28;20045;-77
2021/04/14 00:11:24;;;;;;;4.55;1.00;;;20.60;39.30;;;;;;5222865;28;20541;-77
2021/04/14 00:13:55;;;;;;;4.65;1.02;;;20.60;40.00;;;;;;5188397;28;20026;-77
2021/04/14 00:16:26;;;;;;;3.95;0.93;;;20.50;39.30;;;;;;5185229;28;20029;-77
2021/04/14 00:18:56;;;;;;;5.72;1.20;;;20.50;39.60;;;;;;5168677;28;20030;-77
2021/04/14 00:21:27;;;;;;;2.67;0.90;;;20.50;39.00;;;;;;5187598;28;20053;-77
2021/04/14 00:23:58;;;;;;;3.13;0.90;;;20.50;39.60;;;;;;5184348;28;20121;-77
2021/04/14 00:26:28;;;;;;;3.65;1.10;;;20.40;39.60;;;;;;5193855;28;20032;-77
2021/04/14 00:28:59;;;;;;;3.00;1.20;;;20.40;39.50;;;;;;5169336;28;20112;-77
2021/04/14 00:31:35;;;;;;;3.28;1.20;;;20.40;39.30;;;;;;5218505;22;20052;-73
2021/04/14 00:34:13;;;;;;;3.47;1.15;;;20.40;39.10;;;;;;5191548;28;20625;-75
2021/04/14 00:36:44;;;;;;;3.88;1.10;;;20.50;38.60;;;;;;5187866;28;20039;-75
2021/04/14 00:39:17;;;;;;;3.47;0.88;;;20.60;38.80;;;;;;5167336;28;20030;-74
2021/04/14 00:41:48;;;;;;;2.65;1.00;;;20.70;38.40;;;;;;5183675;28;20395;-75
2021/04/14 00:44:19;;;;;;;3.60;1.10;;;20.80;38.40;;;;;;5183781;28;20045;-75
2021/04/14 00:46:49;;;;;;;5.32;1.33;;;20.90;37.30;;;;;;5171328;28;20038;-75
2021/04/14 00:49:20;;;;;;;4.93;1.08;;;21.00;37.40;;;;;;5182581;28;20053;-75
2021/04/14 00:51:50;;;;;;;4.63;1.20;;;21.10;37.10;;;;;;5153799;28;20114;-75
2021/04/14 00:54:21;;;;;;;5.18;1.27;;;21.20;37.20;;;;;;5173864;28;20478;-75
2021/04/14 00:56:51;;;;;;;4.03;1.20;;;21.20;36.80;;;;;;5161408;28;20043;-75
2021/04/14 00:59:22;;;;;;;4.60;1.10;;;21.30;36.90;;;;;;5164567;28;20037;-75
2021/04/14 01:01:52;;;;;;;4.30;1.02;;;21.30;36.70;;;;;;5162119;28;20037;-75
2021/04/14 01:04:23;;;;;;;2.53;0.82;;;21.30;36.50;;;;;;5167757;28;20442;-74
2021/04/14 01:06:54;;;;;;;3.58;1.35;;;21.30;36.30;;;;;;5165381;28;20034;-75
2021/04/14 01:09:24;;;;;;;3.10;0.90;;;21.40;36.20;;;;;;5166092;28;20387;-75
2021/04/14 01:11:56;;;;;;;5.32;1.00;;;21.40;36.10;;;;;;5163187;28;20038;-75
2021/04/14 01:14:26;;;;;;;4.53;1.30;;;21.40;36.30;;;;;;5178991;28;20165;-75
2021/04/14 01:16:57;;;;;;;4.93;1.10;;;21.30;36.40;;;;;;5192572;28;20515;-75
2021/04/14 01:19:27;;;;;;;3.42;1.15;;;21.30;36.10;;;;;;5178019;28;20104;-75
2021/04/14 01:21:58;;;;;;;4.68;1.30;;;21.30;36.80;;;;;;5158509;28;20046;-75
2021/04/14 01:24:28;;;;;;;4.10;1.25;;;21.30;36.50;;;;;;5174612;28;20157;-75
2021/04/14 01:26:59;;;;;;;5.88;1.30;;;21.40;35.70;;;;;;5180751;28;20129;-75
2021/04/14 01:29:29;;;;;;;6.00;1.30;;;21.40;36.50;;;;;;5162094;28;20049;-75
2021/04/14 01:32:00;;;;;;;6.00;1.05;;;21.40;36.00;;;;;;5169892;28;20149;-74
2021/04/14 01:34:30;;;;;;;2.95;1.00;;;21.30;37.30;;;;;;5179902;28;20034;-75
2021/04/14 01:37:01;;;;;;;4.60;1.10;;;21.40;36.10;;;;;;5163750;28;20038;-75
2021/04/14 01:39:31;;;;;;;3.53;1.20;;;21.40;36.30;;;;;;5146916;28;20041;-74
2021/04/14 01:42:02;;;;;;;4.95;1.38;;;21.30;36.00;;;;;;5169414;28;20486;-75
2021/04/14 01:44:32;;;;;;;4.47;1.30;;;21.30;36.10;;;;;;5180559;28;20033;-74
2021/04/14 01:47:03;;;;;;;3.53;1.10;;;21.30;36.70;;;;;;5171258;28;20049;-74
2021/04/14 01:49:33;;;;;;;8.02;1.38;;;21.30;36.40;;;;;;5182859;28;20033;-74
2021/04/14 01:52:04;;;;;;;4.10;1.15;;;21.40;36.50;;;;;;5153382;28;20129;-74
2021/04/14 01:54:34;;;;;;;3.05;0.98;;;21.30;36.20;;;;;;5159044;28;20072;-74
2021/04/14 01:57:06;;;;;;;3.88;1.10;;;21.30;36.20;;;;;;5163625;28;20026;-75
2021/04/14 01:59:36;;;;;;;3.22;1.30;;;21.30;35.90;;;;;;5173403;28;20042;-75
2021/04/14 02:02:07;;;;;;;5.40;1.10;;;21.40;36.00;;;;;;5166951;28;20033;-75
2021/04/14 02:04:37;;;;;;;6.70;1.40;;;21.40;36.40;;;;;;5153296;28;20057;-75
2021/04/14 02:07:08;;;;;;;4.22;1.10;;;21.50;35.80;;;;;;5180445;28;20053;-75
2021/04/14 02:09:38;;;;;;;2.92;0.95;;;21.50;36.00;;;;;;5166864;28;20038;-74
2021/04/14 02:12:09;;;;;;;4.13;1.10;;;21.50;35.30;;;;;;5162340;28;20526;-74
2021/04/14 02:14:40;;;;;;;4.78;1.00;;;21.40;35.90;;;;;;5163615;28;20034;-74
2021/04/14 02:17:11;;;;;;;2.05;0.95;;;21.40;36.80;;;;;;5167510;28;20038;-74
2021/04/14 02:19:41;;;;;;;2.85;1.13;;;21.40;35.90;;;;;;5181943;28;20034;-75
2021/04/14 02:22:12;;;;;;;2.92;0.90;;;21.30;35.80;;;;;;5173020;28;20408;-75
2021/04/14 02:24:42;;;;;;;4.57;0.90;;;21.40;35.80;;;;;;5163929;28;20071;-75
2021/04/14 02:27:13;;;;;;;3.55;0.98;;;21.50;36.00;;;;;;5173530;28;20053;-75
2021/04/14 02:29:43;;;;;;;4.05;0.90;;;21.40;36.40;;;;;;5149944;28;20054;-75
2021/04/14 02:32:14;;;;;;;4.63;0.90;;;21.50;35.70;;;;;;5166174;28;20038;-75
2021/04/14 02:34:45;;;;;;;4.75;1.20;;;21.50;35.60;;;;;;5182271;28;20034;-74
2021/04/14 02:37:15;;;;;;;3.45;1.25;;;21.40;35.50;;;;;;5160662;28;20484;-75
2021/04/14 02:39:46;;;;;;;6.55;1.02;;;21.40;35.80;;;;;;5179295;28;20030;-75
2021/04/14 02:42:16;;;;;;;2.30;0.85;;;21.40;36.00;;;;;;5195382;28;20045;-74
2021/04/14 02:44:47;;;;;;;4.20;0.95;;;21.40;36.10;;;;;;5186032;28;20398;-74
2021/04/14 02:47:17;;;;;;;2.75;1.20;;;21.40;35.60;;;;;;5176913;28;20057;-74
2021/04/14 02:49:48;;;;;;;3.72;1.00;;;21.40;36.00;;;;;;5161643;28;20061;-74
2021/04/14 02:52:18;;;;;;;4.15;0.90;;;21.40;36.00;;;;;;5171448;28;20087;-74
2021/04/14 02:54:49;;;;;;;1.98;0.90;;;21.40;35.60;;;;;;5182824;28;20033;-74
2021/04/14 02:57:19;;;;;;;3.03;1.20;;;21.40;35.50;;;;;;5152313;28;20707;-74
2021/04/14 02:59:50;;;;;;;2.05;0.80;;;21.30;35.60;;;;;;5162516;28;20030;-74
2021/04/14 03:02:21;;;;;;;1.65;0.80;;;21.40;35.50;;;;;;5149902;28;20034;-75
2021/04/14 03:04:52;;;;;;;2.08;0.90;;;21.40;35.50;;;;;;5181486;28;20041;-74
2021/04/14 03:07:22;;;;;;;4.70;1.00;;;21.40;35.90;;;;;;5174858;28;20042;-74
2021/04/14 03:09:53;;;;;;;3.47;1.27;;;21.40;35.60;;;;;;5163882;28;20021;-74
2021/04/14 03:12:23;;;;;;;3.38;0.80;;;21.40;35.40;;;;;;5178798;28;20041;-74
2021/04/14 03:14:55;;;;;;;2.88;0.80;;;21.30;35.70;;;;;;5170223;28;20388;-75
2021/04/14 03:17:26;;;;;;;4.20;1.17;;;21.30;36.00;;;;;;5172117;28;20030;-75
2021/04/14 03:19:57;;;;;;;2.45;0.82;;;21.30;35.30;;;;;;5161640;28;20030;-75
2021/04/14 03:22:27;;;;;;;4.93;1.20;;;21.30;35.50;;;;;;5178294;28;20831;-75
2021/04/14 03:24:58;;;;;;;2.53;0.80;;;21.30;35.30;;;;;;5181564;28;20034;-75
2021/04/14 03:27:28;;;;;;;2.70;0.90;;;21.30;35.50;;;;;;5169131;28;20038;-74
2021/04/14 03:29:59;;;;;;;2.72;1.10;;;21.30;35.70;;;;;;5176544;28;20076;-75
2021/04/14 03:32:29;;;;;;;3.05;1.10;;;21.20;36.10;;;;;;5179385;28;20400;-75
2021/04/14 03:35:00;;;;;;;2.38;0.90;;;21.10;36.20;;;;;;5145621;28;20038;-75
2021/04/14 03:37:30;;;;;;;3.25;1.00;;;20.90;36.60;;;;;;5186323;28;20041;-74
2021/04/14 03:40:01;;;;;;;5.13;1.30;;;20.80;36.60;;;;;;5166588;28;20032;-74
2021/04/14 03:42:32;;;;;;;6.55;0.90;;;20.80;37.30;;;;;;5175683;28;20045;-74
2021/04/14 03:45:12;;;;;;;8.95;0.90;;;20.70;38.20;;;;;;5167005;28;20549;-74
2021/04/14 03:47:42;;;;;;;4.82;1.05;;;20.60;38.10;;;;;;5153416;28;20487;-74
2021/04/14 03:50:15;;;;;;;3.50;0.82;;;20.50;38.70;;;;;;5164791;28;20033;-74
2021/04/14 03:52:47;;;;;;;1.10;0.45;;;20.40;38.70;;;;;;5177387;28;20053;-74
2021/04/14 03:55:19;;;;;;;3.53;1.27;;;20.40;38.80;;;;;;5185383;28;20427;-74
2021/04/14 03:57:50;;;;;;;4.03;0.90;;;20.30;38.50;;;;;;5180883;28;20048;-74
2021/04/14 04:00:21;;;;;;;2.25;0.80;;;20.30;38.90;;;;;;5164131;28;20022;-74
2021/04/14 04:02:51;;;;;;;2.88;0.85;;;20.20;39.00;;;;;;5171412;28;20108;-74
2021/04/14 04:05:22;;;;;;;2.55;0.77;;;20.20;39.20;;;;;;5199798;28;20022;-74
2021/04/14 04:07:52;;;;;;;3.88;0.80;;;20.20;38.60;;;;;;5204780;28;20030;-74
2021/04/14 04:10:23;;;;;;;2.83;0.95;;;20.20;39.40;;;;;;5188421;28;20029;-74
2021/04/14 04:12:56;;;;;;;2.58;0.80;;;20.10;39.40;;;;;;5204995;28;20034;-74
2021/04/14 04:15:26;;;;;;;3.20;0.80;;;20.10;39.40;;;;;;5184560;28;20538;-74
2021/04/14 04:17:57;;;;;;;1.25;0.65;;;20.10;39.40;;;;;;5184512;28;20038;-74
2021/04/14 04:20:27;;;;;;;2.83;0.70;;;20.10;39.40;;;;;;5184587;28;20053;-74
2021/04/14 04:22:58;;;;;;;2.00;0.52;;;20.00;39.30;;;;;;5166147;28;20079;-74
2021/04/14 04:25:29;;;;;;;1.92;0.90;;;20.00;39.40;;;;;;5169426;28;20102;-74
2021/04/14 04:28:00;;;;;;;2.25;0.75;;;20.00;39.20;;;;;;5161796;28;20530;-74
2021/04/14 04:30:30;;;;;;;2.92;0.80;;;20.00;39.50;;;;;;5180992;28;20034;-74
2021/04/14 04:33:01;;;;;;;2.25;0.70;;;20.00;39.40;;;;;;5166578;28;20041;-74
2021/04/14 04:35:32;;;;;;;2.13;0.70;;;20.00;39.30;;;;;;5171304;28;20021;-74
2021/04/14 04:38:02;;;;;;;3.92;0.77;;;19.90;39.30;;;;;;5167000;28;20046;-75
2021/04/14 04:40:33;;;;;;;2.13;0.70;;;20.00;39.40;;;;;;5183950;28;20037;-74
2021/04/14 04:43:04;;;;;;;1.60;0.95;;;19.90;39.50;;;;;;5192495;28;20495;-74
2021/04/14 04:45:34;;;;;;;2.65;0.57;;;19.90;39.30;;;;;;5183222;28;20038;-74
2021/04/14 04:48:05;;;;;;;3.05;0.90;;;19.90;39.40;;;;;;5180358;28;20041;-74
2021/04/14 04:50:36;;;;;;;2.25;0.90;;;19.90;39.60;;;;;;5151347;28;20037;-74
2021/04/14 04:53:09;;;;;;;2.00;0.63;;;19.90;39.60;;;;;;5168644;28;20075;-74
2021/04/14 04:55:44;;;;;;;3.53;0.80;;;19.90;39.60;;;;;;5184332;28;20391;-74
2021/04/14 04:58:14;;;;;;;5.15;0.90;;;19.90;39.40;;;;;;5169026;28;20061;-74
2021/04/14 05:00:47;;;;;;;3.00;0.77;;;19.90;39.60;;;;;;5178879;28;20081;-73
2021/04/14 05:03:17;;;;;;;18.80;1.05;;;19.90;39.70;;;;;;5163636;28;20623;-74
2021/04/14 05:05:48;;;;;;;9.60;1.30;;;20.00;40.20;;;;;;5179401;28;20042;-74
2021/04/14 05:08:19;;;;;;;9.05;1.30;;;19.80;39.90;;;;;;5171100;28;20499;-73
2021/04/14 05:10:49;;;;;;;3.00;1.20;;;19.80;39.70;;;;;;5171184;28;20064;-74
2021/04/14 05:13:20;;;;;;;4.35;1.10;;;19.70;39.40;;;;;;5179033;28;20041;-74
2021/04/14 05:15:50;;;;;;;4.10;1.10;;;19.60;38.70;;;;;;5198704;28;20030;-74
2021/04/14 05:18:21;;;;;;;4.05;1.10;;;19.40;38.80;;;;;;5162044;28;20496;-74
2021/04/14 05:20:51;;;;;;;2.80;0.88;;;19.20;38.90;;;;;;5174167;28;20041;-74
2021/04/14 05:23:22;;;;;;;6.10;1.20;;;19.20;39.50;;;;;;5182900;28;20506;-73
2021/04/14 05:25:52;;;;;;;3.15;1.10;;;19.30;39.50;;;;;;5167624;28;20117;-74
2021/04/14 05:28:25;;;;;;;3.28;0.88;;;19.30;39.60;;;;;;5178899;28;20030;-74
2021/04/14 05:30:55;;;;;;;18.20;2.55;;;19.40;39.00;;;;;;5159416;28;20061;-74
2021/04/14 05:33:26;;;;;;;12.15;2.00;;;19.40;43.50;;;;;;5146913;28;20043;-73
2021/04/14 05:35:56;;;;;;;10.05;1.67;;;19.50;45.40;;;;;;5159681;28;20034;-72
2021/04/14 05:38:27;;;;;;;8.10;1.50;;;19.50;46.10;;;;;;5174968;28;20056;-73
2021/04/14 05:40:58;;;;;;;7.95;1.80;;;19.60;46.60;;;;;;5179061;28;20021;-72
2021/04/14 05:43:31;;;;;;;9.38;1.52;;;19.50;46.90;;;;;;5157735;28;20483;-72
2021/04/14 05:46:12;;;;;;;6.82;1.73;;;19.60;47.00;;;;;;5167574;28;20046;-72
2021/04/14 05:48:43;;;;;;;8.65;1.58;;;19.60;46.60;;;;;;5178881;28;20117;-72
2021/04/14 05:51:25;;;;;;;4.55;1.30;;;19.60;46.90;;;;;;5162172;28;20057;-72
2021/04/14 05:53:56;;;;;;;6.05;1.10;;;19.60;46.30;;;;;;5161955;28;20062;-73
2021/04/14 05:56:26;;;;;;;6.00;1.10;;;19.60;46.10;;;;;;5180824;28;20106;-73
2021/04/14 05:58:57;;;;;;;6.45;1.50;;;19.60;45.80;;;;;;5182435;28;20034;-73
2021/04/14 06:01:29;;;;;;;5.18;1.10;;;19.60;45.60;;;;;;5153104;28;20065;-72
2021/04/14 06:04:00;;;;;;;5.72;1.15;;;19.60;45.10;;;;;;5173599;28;20464;-72
2021/04/14 06:06:30;;;;;;;6.15;1.30;;;19.50;45.00;;;;;;5198079;28;20041;-72
2021/04/14 06:09:01;;;;;;;5.93;1.15;;;19.50;45.90;;;;;;5179475;28;20038;-72
2021/04/14 06:11:31;;;;;;;7.13;1.25;;;19.50;45.80;;;;;;5177933;28;20018;-72
2021/04/14 06:14:03;;;;;;;6.13;1.20;;;19.50;45.60;;;;;;5182293;28;20034;-70
2021/04/14 06:16:34;;;;;;;5.78;1.13;;;19.70;45.70;;;;;;5153271;28;20035;-72
2021/04/14 06:19:05;;;;;;;5.65;1.13;;;19.90;45.80;;;;;;5180323;28;20475;-72
2021/04/14 06:21:37;;;;;;;5.07;1.00;;;20.10;46.20;;;;;;5170140;28;20026;-72
2021/04/14 06:24:08;;;;;;;4.72;0.80;;;20.20;46.40;;;;;;5162175;28;20023;-72
2021/04/14 06:26:49;;;;;;;8.65;1.10;;;20.30;45.60;;;;;;5165275;28;20022;-72
2021/04/14 06:29:19;;;;;;;26.58;3.20;;;20.40;45.60;;;;;;5178893;28;20022;-73
2021/04/14 06:31:52;;;;;;;24.52;5.18;;;20.40;52.30;;;;;;5208333;22;20158;-77
2021/04/14 06:34:23;;;;;;;20.75;3.35;;;20.60;51.10;;;;;;5215132;28;20566;-77
2021/04/14 06:36:56;;;;;;;17.25;3.47;;;20.70;49.90;;;;;;5194189;28;20080;-77
2021/04/14 06:39:33;;;;;;;14.38;2.40;;;20.70;50.10;;;;;;5196527;28;20108;-77
2021/04/14 06:42:24;;;;;;;15.07;2.08;;;20.80;48.90;;;;;;5205868;28;20029;-77
2021/04/14 06:45:02;;;;;;;30.00;3.15;;;20.80;48.50;;;;;;5215742;28;20150;-77
2021/04/14 06:47:51;;;;;;;16.65;1.85;;;20.80;48.10;;;;;;5202238;28;20033;-76
2021/04/14 06:50:30;;;;;;;9.68;2.10;;;20.80;48.30;;;;;;5222635;28;20021;-77
2021/04/14 06:53:16;;;;;;;16.15;2.42;;;20.80;47.80;;;;;;5207545;28;20048;-76
2021/04/14 06:55:49;;;;;;;;;;;20.80;47.50;;;;;;5206599;28;20029;-77
2021/04/14 06:58:21;;;;;;;6.80;1.90;;;20.80;47.50;;;;;;5202700;28;19956;-77
2021/04/14 07:00:54;;;;;;;10.70;1.98;;;20.80;47.30;;;;;;5206660;28;20553;-77
2021/04/14 07:03:27;;;;;;;4.85;1.60;;;20.80;47.10;;;;;;5201497;28;20763;-77
2021/04/14 07:05:59;;;;;;;9.10;1.70;;;20.80;47.20;;;;;;5207293;28;20545;-77
2021/04/14 07:08:32;;;;;;;9.82;2.08;;;20.80;47.00;;;;;;5201607;28;20133;-79
2021/04/14 07:11:03;;;;;;;10.60;1.92;;;20.80;47.00;;;;;;5211904;28;20114;-77
2021/04/14 07:13:35;;;;;;;6.93;2.05;;;20.70;47.10;;;;;;5198809;28;20511;-76
2021/04/14 07:16:42;;;;;;;11.45;1.77;;;20.70;47.30;;;;;;5198596;28;20392;-77
2021/04/14 07:19:36;;;;;;;7.60;1.80;;;20.70;47.30;;;;;;5202657;28;20059;-77
2021/04/14 07:22:31;;;;;;;7.15;1.65;;;20.70;47.70;;;;;;5227070;28;20131;-76
2021/04/14 07:25:05;;;;;;;6.18;1.67;;;20.70;47.80;;;;;;5213538;28;20029;-77
2021/04/14 07:28:04;;;;;;;8.55;1.83;;;20.70;47.90;;;;;;5202562;28;20075;-76
2021/04/14 07:30:38;;;;;;;9.02;1.90;;;20.70;48.00;;;;;;5214121;28;20487;-77
2021/04/14 07:33:13;;;;;;;7.03;1.50;;;20.70;48.00;;;;;;5202036;28;20734;-77
2021/04/14 07:35:51;;;;;;;7.47;1.40;;;20.70;48.30;;;;;;5201051;28;20030;-77
2021/04/14 07:38:42;;;;;;;4.72;1.30;;;20.70;48.40;;;;;;5209721;28;20033;-77
2021/04/14 07:41:41;;;;;;;7.13;1.48;;;20.70;48.50;;;;;;5208733;28;20040;-76
2021/04/14 07:44:23;;;;;;;8.30;1.63;;;20.60;48.60;;;;;;5210003;28;20107;-76
2021/04/14 07:46:53;;;;;;;8.38;1.50;;;20.60;48.70;;;;;;5206529;28;20059;-76
2021/04/14 07:49:31;;;;;;;5.72;1.63;;;20.60;48.70;;;;;;5224673;28;20104;-76
2021/04/14 07:52:04;;;;;;;5.07;1.50;;;20.60;48.70;;;;;;5205725;28;20048;-76
2021/04/14 07:57:12;;;;;;;3.40;1.10;;;20.60;48.90;;;;;;5200744;28;20392;-77
2021/04/14 07:59:44;;;;;;;21.17;1.27;;;20.60;49.00;;;;;;5214958;28;20037;-76
2021/04/14 08:02:15;;;;;;;5.57;1.15;;;20.60;49.10;;;;;;5201455;28;20419;-77
2021/04/14 08:04:46;;;;;;;5.18;1.10;;;20.60;49.00;;;;;;5206621;28;20040;-77
2021/04/14 08:07:21;;;;;;;3.58;1.10;;;20.60;49.00;;;;;;5204395;28;20033;-77
2021/04/14 08:10:00;;;;;;;4.78;1.20;;;20.60;49.10;;;;;;5213498;22;20068;-81
2021/04/14 08:12:32;;;;;;;6.45;1.00;;;20.60;48.70;;;;;;5201882;28;20045;-78
2021/04/14 08:15:14;;;;;;;2.67;1.00;;;20.70;48.30;;;;;;5196957;28;20102;-77
2021/04/14 08:17:45;;;;;;;4.68;1.05;;;20.60;47.90;;;;;;5204427;28;20487;-76
2021/04/14 08:20:28;;;;;;;2.63;1.00;;;20.70;48.00;;;;;;5198076;28;20045;-77
2021/04/14 08:23:25;;;;;;;2.88;1.00;;;20.70;47.70;;;;;;5201044;28;20050;-77
2021/04/14 08:25:57;;;;;;;3.47;0.90;;;20.60;47.60;;;;;;5188386;28;20086;-77
2021/04/14 08:28:46;;;;;;;2.17;0.75;;;20.70;47.30;;;;;;5193554;28;20059;-75
2021/04/14 08:31:45;;;;;;;4.80;1.20;;;20.70;46.90;;;;;;5190026;28;20438;-77
2021/04/14 08:34:15;;;;;;;3.53;1.30;;;20.70;46.90;;;;;;5198253;28;20504;-75
2021/04/14 08:37:00;;;;;;;10.02;1.58;;;20.70;47.00;;;;;;5187460;28;20022;-77
2021/04/14 08:39:33;;;;;;;8.88;1.55;;;20.70;46.90;;;;;;5204981;28;20120;-77
2021/04/14 08:42:14;;;;;;;7.95;1.45;;;20.60;46.90;;;;;;5187737;28;20508;-77
2021/04/14 08:44:46;;;;;;;12.35;1.80;;;20.60;46.80;;;;;;5176210;28;20113;-77
2021/04/14 08:47:24;;;;;;;7.18;2.08;;;20.60;46.80;;;;;;5197411;28;20022;-75
2021/04/14 08:50:15;;;;;;;7.57;1.60;;;20.60;46.90;;;;;;5203050;28;20025;-76
2021/04/14 08:52:49;;;;;;;6.00;1.50;;;20.60;46.80;;;;;;5194924;28;20038;-76
2021/04/14 08:55:23;;;;;;;11.23;2.00;;;20.60;47.80;;;;;;5188359;28;20508;-76
2021/04/14 08:57:54;;;;;;;8.68;1.60;;;20.60;48.10;;;;;;5154617;28;20104;-75
2021/04/14 09:00:25;;;;;;;13.60;1.65;;;20.60;48.50;;;;;;5180814;28;20512;-77
2021/04/14 09:03:05;;;;;;;8.85;1.73;;;20.60;48.80;;;;;;5193711;28;20088;-76
2021/04/14 09:05:35;;;;;;;5.47;2.08;;;20.60;49.10;;;;;;5179398;28;20029;-76
2021/04/14 09:08:10;;;;;;;7.50;1.77;;;20.70;49.30;;;;;;5171617;28;20038;-76
2021/04/14 09:10:53;;;;;;;5.53;1.88;;;20.70;49.30;;;;;;5191856;28;20380;-75
2021/04/14 09:13:32;;;;;;;16.00;2.20;;;20.60;49.30;;;;;;5204977;28;20048;-75
2021/04/14 09:16:03;;;;;;;11.15;2.03;;;20.60;49.40;;;;;;5166633;28;20526;-75
2021/04/14 09:18:37;;;;;;;8.10;2.17;;;20.70;49.60;;;;;;5203400;28;20367;-76
2021/04/14 09:21:24;;;;;;;5.80;1.77;;;20.70;49.50;;;;;;5194785;28;20119;-75
2021/04/14 09:24:06;;;;;;;6.07;1.92;;;20.70;49.50;;;;;;5170695;28;20084;-75
2021/04/14 09:26:38;;;;;;;4.28;1.52;;;20.70;49.60;;;;;;5195684;28;20033;-72
2021/04/14 09:29:33;;;;;;;11.07;2.00;;;20.60;49.60;;;;;;5201528;28;20029;-73
2021/04/14 09:32:10;;;;;;;4.18;1.60;;;20.60;49.60;;;;;;5192898;28;20042;-71
2021/04/14 09:34:46;;;;;;;3.97;1.60;;;20.70;49.80;;;;;;5201301;28;20125;-72
2021/04/14 09:37:17;;;;;;;5.15;1.60;;;20.70;49.80;;;;;;5197585;28;20500;-71
2021/04/14 09:39:50;;;;;;;7.90;1.90;;;20.70;49.90;;;;;;5196339;28;20105;-71
2021/04/14 09:42:23;;;;;;;5.32;1.75;;;20.70;49.70;;;;;;5199918;28;20041;-72
2021/04/14 09:44:55;;;;;;;4.50;1.80;;;20.70;49.80;;;;;;5201623;28;20030;-71
2021/04/14 09:47:26;;;;;;;3.50;1.73;;;20.70;49.60;;;;;;5186299;28;20088;-71
2021/04/14 09:49:57;;;;;;;13.90;2.05;;;20.70;49.60;;;;;;5198088;28;20033;-72
2021/04/14 09:52:45;;;;;;;5.05;1.73;;;20.70;49.60;;;;;;5193517;28;20041;-68
2021/04/14 09:55:58;;;;;;;5.25;1.60;;;20.80;49.60;;;;;;5190782;28;20518;-68
2021/04/14 09:58:41;;;;;;;6.25;1.75;;;20.70;49.40;;;;;;5170106;28;20037;-74
2021/04/14 10:01:26;;;;;;;3.15;1.50;;;20.70;49.20;;;;;;5182599;28;20378;-72
2021/04/14 10:03:59;;;;;;;5.40;1.58;;;20.70;49.10;;;;;;5189779;28;20033;-74
2021/04/14 10:06:29;;;;;;;4.93;1.60;;;20.70;49.20;;;;;;5186835;28;20033;-72
2021/04/14 10:09:02;;;;;;;4.45;1.77;;;20.70;49.10;;;;;;5194124;28;20042;-74
2021/04/14 10:11:35;;;;;;;6.10;1.58;;;20.70;48.80;;;;;;5182220;28;20083;-72
2021/04/14 10:14:19;;;;;;;4.47;2.05;;;20.70;48.80;;;;;;5215090;28;20535;-74
2021/04/14 10:16:50;;;;;;;13.23;2.22;;;20.70;48.90;;;;;;5202762;28;20496;-74
2021/04/14 10:19:30;;;;;;;6.28;2.20;;;20.60;48.90;;;;;;5191100;28;20037;-73
2021/04/14 10:22:13;;;;;;;12.13;2.88;;;20.70;49.10;;;;;;5195974;28;20026;-75
2021/04/14 10:24:43;;;;;;;10.40;2.90;;;20.70;48.90;;;;;;5189895;28;20064;-73
2021/04/14 10:27:19;;;;;;;8.57;3.08;;;20.70;48.80;;;;;;5183114;28;20038;-72
2021/04/14 10:29:49;;;;;;;8.55;3.45;;;20.70;48.80;;;;;;5184229;28;20087;-73
2021/04/14 10:32:21;;;;;;;11.77;3.58;;;20.70;48.70;;;;;;5166372;28;20030;-73
2021/04/14 10:34:52;;;;;;;11.70;3.90;;;20.70;48.70;;;;;;5200889;28;20500;-72
2021/04/14 10:37:24;;;;;;;11.55;3.40;;;20.70;48.70;;;;;;5202002;28;20072;-72
2021/04/14 10:40:05;;;;;;;11.85;3.80;;;20.70;48.70;;;;;;5189070;28;20507;-72
2021/04/14 10:42:35;;;;;;;8.40;3.47;;;20.70;48.60;;;;;;5201314;28;20041;-72
2021/04/14 10:45:07;;;;;;;7.00;3.03;;;20.70;48.50;;;;;;5201753;28;20080;-72
2021/04/14 10:47:39;;;;;;;7.32;2.85;;;20.70;48.50;;;;;;5182870;28;20049;-73
2021/04/14 10:50:15;;;;;;;6.57;2.70;;;20.70;48.50;;;;;;5204288;28;20057;-72
2021/04/14 10:52:48;;;;;;;6.15;2.40;;;20.70;48.40;;;;;;5204043;28;20044;-73
2021/04/14 10:55:20;;;;;;;6.70;2.85;;;20.70;48.30;;;;;;5186448;28;20033;-73
2021/04/14 10:57:59;;;;;;;7.13;2.50;;;20.70;48.10;;;;;;5195881;28;20034;-72
2021/04/14 11:00:34;;;;;;;5.47;2.58;;;20.70;48.10;;;;;;5187086;28;20113;-71
2021/04/14 11:03:09;;;;;;;7.05;2.70;;;20.70;48.10;;;;;;5184907;28;20037;-72
2021/04/14 11:05:45;;;;;;;7.97;2.83;;;20.70;47.90;;;;;;5187519;28;20083;-73
2021/04/14 11:08:16;;;;;;;7.65;2.40;;;20.70;47.80;;;;;;5206687;28;20037;-70
2021/04/14 11:10:46;;;;;;;4.72;2.50;;;20.70;47.80;;;;;;5191519;28;20030;-73
2021/04/14 11:13:20;;;;;;;7.15;2.55;;;20.70;47.70;;;;;;5207196;28;20067;-73
2021/04/14 11:15:51;;;;;;;5.05;2.38;;;20.70;47.70;;;;;;5187750;28;20037;-74
2021/04/14 11:18:35;;;;;;;5.70;2.42;;;20.70;47.70;;;;;;5219793;28;20033;-72
2021/04/14 11:23:38;;;;;;;4.03;2.00;;;20.70;47.80;;;;;;5202160;28;20036;-73
2021/04/14 11:26:13;;;;;;;5.70;2.30;;;20.70;47.90;;;;;;5195781;28;20056;-73
2021/04/14 11:28:48;;;;;;;;;;;20.70;48.70;;;;;;5223767;28;20046;-73
2021/04/14 11:31:41;;;;;;;4.75;2.45;;;20.70;48.20;;;;;;5192934;28;19917;-74
2021/04/14 11:34:22;;;;;;;3.67;2.13;;;20.70;48.10;;;;;;5174469;28;20152;-71
2021/04/14 11:37:03;;;;;;;10.15;2.50;;;20.70;48.10;;;;;;5203453;28;20400;-76
2021/04/14 11:40:05;;;;;;;6.68;2.22;;;20.70;48.20;;;;;;5198458;28;20172;-78
2021/04/14 11:42:53;;;;;;;6.32;2.47;;;20.70;48.20;;;;;;5189597;28;20042;-86
2021/04/14 11:45:25;;;;;;;9.23;2.53;;;20.70;48.10;;;;;;5190291;28;20065;-80
2021/04/14 11:48:14;;;;;;;6.00;2.20;;;20.70;48.10;;;;;;5204139;28;20025;-81
2021/04/14 11:50:46;;;;;;;7.07;2.30;;;20.70;48.00;;;;;;5205068;28;20024;-82
2021/04/14 11:53:30;;;;;;;6.68;2.40;;;20.80;47.80;;;;;;5193819;28;20042;-80
2021/04/14 11:56:00;;;;;;;6.32;2.17;;;20.80;47.90;;;;;;5208038;28;20025;-80
2021/04/14 11:58:38;;;;;;;2.97;1.58;;;20.80;47.70;;;;;;5189236;28;20507;-73
2021/04/14 12:01:21;;;;;;;5.68;2.53;;;20.80;47.60;;;;;;5202999;28;20030;-78
2021/04/14 12:03:52;;;;;;;4.43;2.13;;;20.80;47.60;;;;;;5200242;28;20064;-75
2021/04/14 12:06:23;;;;;;;5.38;2.42;;;20.80;47.70;;;;;;5178108;28;20459;-76
2021/04/14 12:08:53;;;;;;;5.15;1.98;;;20.80;47.70;;;;;;5184914;28;20399;-77
2021/04/14 12:11:24;;;;;;;4.15;2.13;;;20.80;48.00;;;;;;5198202;28;20040;-76
2021/04/14 12:13:55;;;;;;;5.63;2.15;;;20.70;48.10;;;;;;5180771;28;20511;-76
2021/04/14 12:16:25;;;;;;;6.35;2.05;;;20.70;48.30;;;;;;5188601;28;20030;-76
2021/04/14 12:18:56;;;;;;;5.15;1.75;;;20.60;48.40;;;;;;5171380;28;20037;-76
2021/04/14 12:21:27;;;;;;;7.80;1.80;;;20.70;48.60;;;;;;5194780;28;20515;-78
2021/04/14 12:23:57;;;;;;;3.67;1.70;;;20.70;48.50;;;;;;5180023;28;20530;-76
2021/04/14 12:26:28;;;;;;;6.25;2.20;;;20.70;48.60;;;;;;5197421;28;20069;-76
2021/04/14 12:28:58;;;;;;;7.78;1.73;;;20.70;48.50;;;;;;5205884;28;20033;-75
2021/04/14 12:31:31;;;;;;;4.70;1.75;;;20.80;48.50;;;;;;5205052;28;20040;-75
2021/04/14 12:34:03;;;;;;;7.18;2.20;;;20.70;48.40;;;;;;5183447;28;20496;-75
2021/04/14 12:36:34;;;;;;;5.55;1.70;;;20.70;48.50;;;;;;5164627;28;20116;-74
2021/04/14 12:39:05;;;;;;;6.30;1.90;;;20.70;48.60;;;;;;5204377;28;20041;-76
2021/04/14 12:41:35;;;;;;;7.50;1.95;;;20.80;48.50;;;;;;5204521;28;20044;-75
2021/04/14 12:44:06;;;;;;;7.38;2.00;;;20.70;48.50;;;;;;5203329;28;20037;-75
2021/04/14 12:46:41;;;;;;;6.35;1.88;;;20.70;48.60;;;;;;5182368;28;20403;-78
2021/04/14 12:49:12;;;;;;;5.60;1.58;;;20.80;48.90;;;;;;5172862;28;20032;-76
2021/04/14 12:51:48;;;;;;;8.55;2.03;;;20.80;49.10;;;;;;5187219;28;20056;-75
2021/04/14 12:54:19;;;;;;;5.10;2.08;;;20.80;49.10;;;;;;5186295;28;20494;-76
2021/04/14 12:56:52;;;;;;;3.35;1.67;;;20.80;49.10;;;;;;5199943;28;20022;-76
2021/04/14 12:59:39;;;;;;;3.83;1.67;;;20.80;49.10;;;;;;5189151;28;20037;-74
2021/04/14 13:02:18;;;;;;;4.55;1.50;;;20.80;49.00;;;;;;5192836;28;20038;-74
2021/04/14 13:04:52;;;;;;;4.78;1.67;;;20.80;48.90;;;;;;5181405;28;20104;-74
2021/04/14 13:07:33;;;;;;;5.28;1.92;;;20.80;49.00;;;;;;5191379;28;20046;-76
2021/04/14 13:10:08;;;;;;;3.38;1.40;;;20.80;48.90;;;;;;5193385;28;20040;-76
2021/04/14 13:12:39;;;;;;;5.30;1.73;;;20.80;48.80;;;;;;5192296;28;20053;-77
2021/04/14 13:15:11;;;;;;;3.17;1.55;;;20.70;48.60;;;;;;5175806;28;20061;-77
2021/04/14 13:17:45;;;;;;;3.00;1.63;;;20.70;48.50;;;;;;5179880;28;20458;-77
2021/04/14 13:20:17;;;;;;;5.38;1.38;;;20.70;48.20;;;;;;5190784;28;20017;-77
2021/04/14 13:23:09;;;;;;;3.33;1.20;;;20.80;47.90;;;;;;5206224;28;20037;-76
2021/04/14 13:25:53;;;;;;;3.53;1.15;;;20.80;47.60;;;;;;5190174;28;20060;-77